sensor_id;sensor_type;location;lat;lon;timestamp;P1;durP1;ratioP1;P2;durP2;ratioP2
74935;SDS011;63501;55.570;37.488;2023-10-31T00:00:24;0.00;;;0.00;;
74935;SDS011;63501;55.570;37.488;2023-10-31T00:02:51;0.40;;;0.25;;
74935;SDS011;63501;55.570;37.488;2023-10-31T00:05:18;0.40;;;0.30;;
74935;SDS011;63501;55.570;37.488;2023-10-31T00:07:45;0.38;;;0.38;;
74935;SDS011;63501;55.570;37.488;2023-10-31T00:10:12;0.00;;;0.00;;
74935;SDS011;63501;55.570;37.488;2023-10-31T00:12:39;0.20;;;0.20;;
74935;SDS011;63501;55.570;37.488;2023-10-31T00:15:06;0.70;;;0.35;;
74935;SDS011;63501;55.570;37.488;2023-10-31T00:17:35;0.30;;;0.30;;
74935;SDS011;63501;55.570;37.488;2023-10-31T00:20:02;0.45;;;0.30;;
74935;SDS011;63501;55.570;37.488;2023-10-31T00:24:57;0.15;;;0.15;;
74935;SDS011;63501;55.570;37.488;2023-10-31T00:27:24;0.10;;;0.10;;
74935;SDS011;63501;55.570;37.488;2023-10-31T00:29:51;0.15;;;0.15;;
74935;SDS011;63501;55.570;37.488;2023-10-31T00:32:18;0.10;;;0.10;;
74935;SDS011;63501;55.570;37.488;2023-10-31T00:34:46;1.65;;;0.85;;
74935;SDS011;63501;55.570;37.488;2023-10-31T00:37:13;0.22;;;0.22;;
74935;SDS011;63501;55.570;37.488;2023-10-31T00:39:40;0.15;;;0.15;;
74935;SDS011;63501;55.570;37.488;2023-10-31T00:42:07;0.55;;;0.10;;
74935;SDS011;63501;55.570;37.488;2023-10-31T00:44:34;0.00;;;0.00;;
74935;SDS011;63501;55.570;37.488;2023-10-31T00:47:01;0.00;;;0.00;;
74935;SDS011;63501;55.570;37.488;2023-10-31T00:49:30;0.05;;;0.03;;
74935;SDS011;63501;55.570;37.488;2023-10-31T00:51:58;0.10;;;0.10;;
74935;SDS011;63501;55.570;37.488;2023-10-31T00:54:26;0.28;;;0.25;;
74935;SDS011;63501;55.570;37.488;2023-10-31T00:56:53;0.00;;;0.00;;
74935;SDS011;63501;55.570;37.488;2023-10-31T00:59:20;0.20;;;0.20;;
74935;SDS011;63501;55.570;37.488;2023-10-31T01:01:47;0.52;;;0.40;;
74935;SDS011;63501;55.570;37.488;2023-10-31T01:04:14;0.10;;;0.10;;
74935;SDS011;63501;55.570;37.488;2023-10-31T01:06:41;0.00;;;0.00;;
74935;SDS011;63501;55.570;37.488;2023-10-31T01:09:09;0.00;;;0.00;;
74935;SDS011;63501;55.570;37.488;2023-10-31T01:11:38;0.00;;;0.00;;
74935;SDS011;63501;55.570;37.488;2023-10-31T01:14:05;0.20;;;0.20;;
74935;SDS011;63501;55.570;37.488;2023-10-31T01:16:32;0.25;;;0.20;;
74935;SDS011;63501;55.570;37.488;2023-10-31T01:18:59;0.00;;;0.00;;
74935;SDS011;63501;55.570;37.488;2023-10-31T01:21:26;2.72;;;0.13;;
74935;SDS011;63501;55.570;37.488;2023-10-31T01:23:53;0.28;;;0.28;;
74935;SDS011;63501;55.570;37.488;2023-10-31T01:26:21;0.00;;;0.00;;
74935;SDS011;63501;55.570;37.488;2023-10-31T01:28:48;0.03;;;0.03;;
74935;SDS011;63501;55.570;37.488;2023-10-31T01:31:16;0.98;;;0.80;;
74935;SDS011;63501;55.570;37.488;2023-10-31T01:33:45;0.10;;;0.10;;
74935;SDS011;63501;55.570;37.488;2023-10-31T01:36:12;0.08;;;0.08;;
74935;SDS011;63501;55.570;37.488;2023-10-31T01:38:39;0.00;;;0.00;;
74935;SDS011;63501;55.570;37.488;2023-10-31T01:41:07;0.13;;;0.13;;
74935;SDS011;63501;55.570;37.488;2023-10-31T01:43:36;0.88;;;0.82;;
74935;SDS011;63501;55.570;37.488;2023-10-31T01:46:04;0.13;;;0.13;;
74935;SDS011;63501;55.570;37.488;2023-10-31T01:48:32;1.00;;;0.65;;
74935;SDS011;63501;55.570;37.488;2023-10-31T01:53:28;1.45;;;1.35;;
74935;SDS011;63501;55.570;37.488;2023-10-31T01:55:58;0.10;;;0.10;;
74935;SDS011;63501;55.570;37.488;2023-10-31T01:58:28;0.05;;;0.05;;
74935;SDS011;63501;55.570;37.488;2023-10-31T02:00:58;0.32;;;0.32;;
74935;SDS011;63501;55.570;37.488;2023-10-31T02:03:27;0.10;;;0.10;;
74935;SDS011;63501;55.570;37.488;2023-10-31T02:05:54;0.65;;;0.10;;
74935;SDS011;63501;55.570;37.488;2023-10-31T02:08:21;0.00;;;0.00;;
74935;SDS011;63501;55.570;37.488;2023-10-31T02:10:48;1.13;;;0.20;;
74935;SDS011;63501;55.570;37.488;2023-10-31T02:13:17;0.05;;;0.05;;
74935;SDS011;63501;55.570;37.488;2023-10-31T02:15:45;1.08;;;0.38;;
74935;SDS011;63501;55.570;37.488;2023-10-31T02:18:13;0.00;;;0.00;;
74935;SDS011;63501;55.570;37.488;2023-10-31T02:21:01;0.35;;;0.35;;
74935;SDS011;63501;55.570;37.488;2023-10-31T02:23:30;0.40;;;0.40;;
74935;SDS011;63501;55.570;37.488;2023-10-31T02:25:57;0.00;;;0.00;;
74935;SDS011;63501;55.570;37.488;2023-10-31T02:28:23;0.05;;;0.05;;
74935;SDS011;63501;55.570;37.488;2023-10-31T02:30:53;0.00;;;0.00;;
74935;SDS011;63501;55.570;37.488;2023-10-31T02:33:20;0.00;;;0.00;;
74935;SDS011;63501;55.570;37.488;2023-10-31T02:35:47;0.00;;;0.00;;
74935;SDS011;63501;55.570;37.488;2023-10-31T02:38:14;0.08;;;0.08;;
74935;SDS011;63501;55.570;37.488;2023-10-31T02:40:43;1.55;;;0.50;;
74935;SDS011;63501;55.570;37.488;2023-10-31T02:43:10;0.28;;;0.28;;
74935;SDS011;63501;55.570;37.488;2023-10-31T02:45:37;0.65;;;0.55;;
74935;SDS011;63501;55.570;37.488;2023-10-31T02:48:04;0.45;;;0.45;;
74935;SDS011;63501;55.570;37.488;2023-10-31T02:50:31;0.00;;;0.00;;
74935;SDS011;63501;55.570;37.488;2023-10-31T02:52:58;0.30;;;0.30;;
74935;SDS011;63501;55.570;37.488;2023-10-31T02:55:25;0.65;;;0.45;;
74935;SDS011;63501;55.570;37.488;2023-10-31T02:57:53;0.38;;;0.22;;
74935;SDS011;63501;55.570;37.488;2023-10-31T03:00:21;0.00;;;0.00;;
74935;SDS011;63501;55.570;37.488;2023-10-31T03:02:48;0.25;;;0.25;;
74935;SDS011;63501;55.570;37.488;2023-10-31T03:05:15;0.35;;;0.35;;
74935;SDS011;63501;55.570;37.488;2023-10-31T03:07:42;0.52;;;0.52;;
74935;SDS011;63501;55.570;37.488;2023-10-31T03:10:10;1.55;;;0.40;;
74935;SDS011;63501;55.570;37.488;2023-10-31T03:12:37;0.25;;;0.17;;
74935;SDS011;63501;55.570;37.488;2023-10-31T03:15:06;10.15;;;0.80;;
74935;SDS011;63501;55.570;37.488;2023-10-31T03:17:34;0.88;;;0.22;;
74935;SDS011;63501;55.570;37.488;2023-10-31T03:20:01;0.70;;;0.70;;
74935;SDS011;63501;55.570;37.488;2023-10-31T03:22:29;1.58;;;0.52;;
74935;SDS011;63501;55.570;37.488;2023-10-31T03:24:56;0.00;;;0.00;;
74935;SDS011;63501;55.570;37.488;2023-10-31T03:27:23;0.03;;;0.03;;
74935;SDS011;63501;55.570;37.488;2023-10-31T03:29:50;0.00;;;0.00;;
74935;SDS011;63501;55.570;37.488;2023-10-31T03:32:18;1.02;;;1.02;;
74935;SDS011;63501;55.570;37.488;2023-10-31T03:34:45;0.35;;;0.32;;
74935;SDS011;63501;55.570;37.488;2023-10-31T03:37:12;1.55;;;0.52;;
74935;SDS011;63501;55.570;37.488;2023-10-31T03:39:39;0.10;;;0.10;;
74935;SDS011;63501;55.570;37.488;2023-10-31T03:42:06;0.85;;;0.85;;
74935;SDS011;63501;55.570;37.488;2023-10-31T03:44:33;0.65;;;0.40;;
74935;SDS011;63501;55.570;37.488;2023-10-31T03:47:00;0.43;;;0.43;;
74935;SDS011;63501;55.570;37.488;2023-10-31T03:49:29;1.63;;;0.82;;
74935;SDS011;63501;55.570;37.488;2023-10-31T03:51:56;0.00;;;0.00;;
74935;SDS011;63501;55.570;37.488;2023-10-31T03:54:23;0.73;;;0.50;;
74935;SDS011;63501;55.570;37.488;2023-10-31T03:56:50;1.08;;;0.80;;
74935;SDS011;63501;55.570;37.488;2023-10-31T03:59:17;1.02;;;0.95;;
74935;SDS011;63501;55.570;37.488;2023-10-31T04:01:44;0.55;;;0.55;;
74935;SDS011;63501;55.570;37.488;2023-10-31T04:04:11;1.25;;;0.50;;
74935;SDS011;63501;55.570;37.488;2023-10-31T04:06:39;0.85;;;0.00;;
74935;SDS011;63501;55.570;37.488;2023-10-31T04:09:07;0.82;;;0.73;;
74935;SDS011;63501;55.570;37.488;2023-10-31T04:11:34;0.77;;;0.77;;
74935;SDS011;63501;55.570;37.488;2023-10-31T04:14:01;0.17;;;0.17;;
74935;SDS011;63501;55.570;37.488;2023-10-31T04:16:29;0.00;;;0.00;;
74935;SDS011;63501;55.570;37.488;2023-10-31T04:18:56;0.60;;;0.60;;
74935;SDS011;63501;55.570;37.488;2023-10-31T04:21:23;0.77;;;0.73;;
74935;SDS011;63501;55.570;37.488;2023-10-31T04:23:51;0.65;;;0.65;;
74935;SDS011;63501;55.570;37.488;2023-10-31T04:26:18;1.10;;;1.00;;
74935;SDS011;63501;55.570;37.488;2023-10-31T04:28:45;0.35;;;0.30;;
74935;SDS011;63501;55.570;37.488;2023-10-31T04:31:12;0.00;;;0.00;;
74935;SDS011;63501;55.570;37.488;2023-10-31T04:33:39;0.63;;;0.32;;
74935;SDS011;63501;55.570;37.488;2023-10-31T04:36:07;1.27;;;0.95;;
74935;SDS011;63501;55.570;37.488;2023-10-31T04:38:36;0.10;;;0.10;;
74935;SDS011;63501;55.570;37.488;2023-10-31T04:41:05;0.20;;;0.20;;
74935;SDS011;63501;55.570;37.488;2023-10-31T04:43:32;0.17;;;0.17;;
74935;SDS011;63501;55.570;37.488;2023-10-31T04:45:59;2.10;;;1.17;;
74935;SDS011;63501;55.570;37.488;2023-10-31T04:48:26;0.47;;;0.47;;
74935;SDS011;63501;55.570;37.488;2023-10-31T04:50:53;0.70;;;0.70;;
74935;SDS011;63501;55.570;37.488;2023-10-31T04:53:22;0.40;;;0.40;;
74935;SDS011;63501;55.570;37.488;2023-10-31T04:55:48;0.40;;;0.40;;
74935;SDS011;63501;55.570;37.488;2023-10-31T04:58:17;0.00;;;0.00;;
74935;SDS011;63501;55.570;37.488;2023-10-31T05:00:44;0.10;;;0.10;;
74935;SDS011;63501;55.570;37.488;2023-10-31T05:03:13;0.08;;;0.08;;
74935;SDS011;63501;55.570;37.488;2023-10-31T05:05:40;8.15;;;1.40;;
74935;SDS011;63501;55.570;37.488;2023-10-31T05:08:07;0.35;;;0.35;;
74935;SDS011;63501;55.570;37.488;2023-10-31T05:10:34;0.88;;;0.80;;
74935;SDS011;63501;55.570;37.488;2023-10-31T05:13:01;0.95;;;0.95;;
74935;SDS011;63501;55.570;37.488;2023-10-31T05:15:30;0.80;;;0.52;;
74935;SDS011;63501;55.570;37.488;2023-10-31T05:17:57;0.43;;;0.32;;
74935;SDS011;63501;55.570;37.488;2023-10-31T05:20:24;0.73;;;0.73;;
74935;SDS011;63501;55.570;37.488;2023-10-31T05:22:51;2.20;;;1.13;;
74935;SDS011;63501;55.570;37.488;2023-10-31T05:25:18;1.75;;;1.42;;
74935;SDS011;63501;55.570;37.488;2023-10-31T05:27:45;0.60;;;0.60;;
74935;SDS011;63501;55.570;37.488;2023-10-31T05:30:13;1.08;;;0.57;;
74935;SDS011;63501;55.570;37.488;2023-10-31T05:32:42;1.58;;;0.90;;
74935;SDS011;63501;55.570;37.488;2023-10-31T05:35:09;1.10;;;1.00;;
74935;SDS011;63501;55.570;37.488;2023-10-31T05:37:36;1.48;;;1.40;;
74935;SDS011;63501;55.570;37.488;2023-10-31T05:40:04;1.42;;;1.33;;
74935;SDS011;63501;55.570;37.488;2023-10-31T05:42:32;3.22;;;1.10;;
74935;SDS011;63501;55.570;37.488;2023-10-31T05:44:59;1.00;;;0.85;;
74935;SDS011;63501;55.570;37.488;2023-10-31T05:47:26;1.15;;;1.10;;
74935;SDS011;63501;55.570;37.488;2023-10-31T05:49:55;2.08;;;0.75;;
74935;SDS011;63501;55.570;37.488;2023-10-31T05:54:57;0.35;;;0.35;;
74935;SDS011;63501;55.570;37.488;2023-10-31T05:57:24;0.10;;;0.10;;
74935;SDS011;63501;55.570;37.488;2023-10-31T05:59:51;0.03;;;0.03;;
74935;SDS011;63501;55.570;37.488;2023-10-31T06:02:19;1.45;;;1.35;;
74935;SDS011;63501;55.570;37.488;2023-10-31T06:04:47;1.80;;;1.70;;
74935;SDS011;63501;55.570;37.488;2023-10-31T06:07:15;0.55;;;0.52;;
74935;SDS011;63501;55.570;37.488;2023-10-31T06:09:42;1.35;;;1.25;;
74935;SDS011;63501;55.570;37.488;2023-10-31T06:12:09;1.42;;;1.00;;
74935;SDS011;63501;55.570;37.488;2023-10-31T06:14:36;4.20;;;1.55;;
74935;SDS011;63501;55.570;37.488;2023-10-31T06:17:04;0.77;;;0.75;;
74935;SDS011;63501;55.570;37.488;2023-10-31T06:19:34;7.97;;;2.83;;
74935;SDS011;63501;55.570;37.488;2023-10-31T06:22:03;2.05;;;1.73;;
74935;SDS011;63501;55.570;37.488;2023-10-31T06:24:31;2.13;;;1.80;;
74935;SDS011;63501;55.570;37.488;2023-10-31T06:26:58;2.83;;;1.77;;
74935;SDS011;63501;55.570;37.488;2023-10-31T06:29:26;5.25;;;2.30;;
74935;SDS011;63501;55.570;37.488;2023-10-31T06:31:53;4.20;;;2.10;;
74935;SDS011;63501;55.570;37.488;2023-10-31T06:34:20;9.30;;;2.80;;
74935;SDS011;63501;55.570;37.488;2023-10-31T06:36:47;3.15;;;2.08;;
74935;SDS011;63501;55.570;37.488;2023-10-31T06:39:14;1.70;;;1.60;;
74935;SDS011;63501;55.570;37.488;2023-10-31T06:41:42;5.45;;;1.83;;
74935;SDS011;63501;55.570;37.488;2023-10-31T06:44:09;1.50;;;1.40;;
74935;SDS011;63501;55.570;37.488;2023-10-31T06:46:36;1.20;;;1.10;;
74935;SDS011;63501;55.570;37.488;2023-10-31T06:49:03;2.10;;;0.80;;
74935;SDS011;63501;55.570;37.488;2023-10-31T06:51:30;3.00;;;0.82;;
74935;SDS011;63501;55.570;37.488;2023-10-31T06:53:57;1.63;;;1.38;;
74935;SDS011;63501;55.570;37.488;2023-10-31T06:59:12;1.80;;;0.85;;
74935;SDS011;63501;55.570;37.488;2023-10-31T07:01:39;3.70;;;1.33;;
74935;SDS011;63501;55.570;37.488;2023-10-31T07:04:06;0.13;;;0.08;;
74935;SDS011;63501;55.570;37.488;2023-10-31T07:06:33;0.55;;;0.55;;
74935;SDS011;63501;55.570;37.488;2023-10-31T07:09:00;2.17;;;1.63;;
74935;SDS011;63501;55.570;37.488;2023-10-31T07:11:30;2.65;;;1.65;;
74935;SDS011;63501;55.570;37.488;2023-10-31T07:14:00;2.25;;;1.25;;
74935;SDS011;63501;55.570;37.488;2023-10-31T07:16:29;1.40;;;1.02;;
74935;SDS011;63501;55.570;37.488;2023-10-31T07:18:56;1.52;;;1.42;;
74935;SDS011;63501;55.570;37.488;2023-10-31T07:21:23;0.73;;;0.65;;
74935;SDS011;63501;55.570;37.488;2023-10-31T07:23:51;0.68;;;0.68;;
74935;SDS011;63501;55.570;37.488;2023-10-31T07:26:18;0.98;;;0.98;;
74935;SDS011;63501;55.570;37.488;2023-10-31T07:28:45;2.78;;;1.20;;
74935;SDS011;63501;55.570;37.488;2023-10-31T07:31:15;6.18;;;2.28;;
74935;SDS011;63501;55.570;37.488;2023-10-31T07:33:43;1.98;;;1.88;;
74935;SDS011;63501;55.570;37.488;2023-10-31T07:36:11;3.60;;;1.15;;
74935;SDS011;63501;55.570;37.488;2023-10-31T07:38:38;1.85;;;1.70;;
74935;SDS011;63501;55.570;37.488;2023-10-31T07:41:05;3.45;;;2.38;;
74935;SDS011;63501;55.570;37.488;2023-10-31T07:43:32;5.10;;;2.45;;
74935;SDS011;63501;55.570;37.488;2023-10-31T07:45:59;8.25;;;4.93;;
74935;SDS011;63501;55.570;37.488;2023-10-31T07:48:27;10.07;;;4.13;;
74935;SDS011;63501;55.570;37.488;2023-10-31T07:50:54;9.35;;;4.68;;
74935;SDS011;63501;55.570;37.488;2023-10-31T07:53:21;7.43;;;5.22;;
74935;SDS011;63501;55.570;37.488;2023-10-31T07:55:48;7.25;;;3.97;;
74935;SDS011;63501;55.570;37.488;2023-10-31T07:58:16;10.57;;;4.97;;
74935;SDS011;63501;55.570;37.488;2023-10-31T08:00:43;7.55;;;4.72;;
74935;SDS011;63501;55.570;37.488;2023-10-31T08:03:10;9.63;;;5.13;;
74935;SDS011;63501;55.570;37.488;2023-10-31T08:05:38;10.65;;;5.35;;
74935;SDS011;63501;55.570;37.488;2023-10-31T08:08:06;10.00;;;4.50;;
74935;SDS011;63501;55.570;37.488;2023-10-31T08:10:36;12.02;;;6.13;;
74935;SDS011;63501;55.570;37.488;2023-10-31T08:13:03;12.63;;;6.72;;
74935;SDS011;63501;55.570;37.488;2023-10-31T08:15:30;10.93;;;5.63;;
74935;SDS011;63501;55.570;37.488;2023-10-31T08:17:57;9.70;;;5.68;;
74935;SDS011;63501;55.570;37.488;2023-10-31T08:20:24;11.02;;;5.65;;
74935;SDS011;63501;55.570;37.488;2023-10-31T08:22:53;10.40;;;5.50;;
74935;SDS011;63501;55.570;37.488;2023-10-31T08:25:20;6.88;;;4.35;;
74935;SDS011;63501;55.570;37.488;2023-10-31T08:27:48;8.35;;;5.25;;
74935;SDS011;63501;55.570;37.488;2023-10-31T08:30:15;11.63;;;6.20;;
74935;SDS011;63501;55.570;37.488;2023-10-31T08:32:42;12.82;;;6.82;;
74935;SDS011;63501;55.570;37.488;2023-10-31T08:35:09;6.53;;;4.13;;
74935;SDS011;63501;55.570;37.488;2023-10-31T08:37:36;8.52;;;5.75;;
74935;SDS011;63501;55.570;37.488;2023-10-31T08:40:05;11.52;;;5.55;;
74935;SDS011;63501;55.570;37.488;2023-10-31T08:42:33;11.20;;;4.90;;
74935;SDS011;63501;55.570;37.488;2023-10-31T08:45:00;7.50;;;4.15;;
74935;SDS011;63501;55.570;37.488;2023-10-31T08:47:29;7.03;;;4.75;;
74935;SDS011;63501;55.570;37.488;2023-10-31T08:49:56;6.80;;;4.43;;
74935;SDS011;63501;55.570;37.488;2023-10-31T08:52:23;7.18;;;4.65;;
74935;SDS011;63501;55.570;37.488;2023-10-31T08:54:50;7.88;;;4.38;;
74935;SDS011;63501;55.570;37.488;2023-10-31T08:57:19;6.68;;;3.40;;
74935;SDS011;63501;55.570;37.488;2023-10-31T08:59:46;2.58;;;2.03;;
74935;SDS011;63501;55.570;37.488;2023-10-31T09:02:13;8.02;;;4.30;;
74935;SDS011;63501;55.570;37.488;2023-10-31T09:04:40;7.53;;;3.50;;
74935;SDS011;63501;55.570;37.488;2023-10-31T09:07:07;6.93;;;3.58;;
74935;SDS011;63501;55.570;37.488;2023-10-31T09:09:34;5.65;;;3.90;;
74935;SDS011;63501;55.570;37.488;2023-10-31T09:12:01;6.85;;;3.90;;
74935;SDS011;63501;55.570;37.488;2023-10-31T09:14:30;5.75;;;3.85;;
74935;SDS011;63501;55.570;37.488;2023-10-31T09:16:57;5.65;;;4.00;;
74935;SDS011;63501;55.570;37.488;2023-10-31T09:19:24;6.13;;;3.45;;
74935;SDS011;63501;55.570;37.488;2023-10-31T09:21:51;5.15;;;3.65;;
74935;SDS011;63501;55.570;37.488;2023-10-31T09:24:18;3.60;;;2.85;;
74935;SDS011;63501;55.570;37.488;2023-10-31T09:26:45;5.25;;;2.83;;
74935;SDS011;63501;55.570;37.488;2023-10-31T09:29:12;4.32;;;2.50;;
74935;SDS011;63501;55.570;37.488;2023-10-31T10:01:06;9.70;;;6.30;;
74935;SDS011;63501;55.570;37.488;2023-10-31T10:03:34;6.63;;;5.22;;
74935;SDS011;63501;55.570;37.488;2023-10-31T10:06:03;7.10;;;4.22;;
74935;SDS011;63501;55.570;37.488;2023-10-31T10:08:31;7.70;;;5.82;;
74935;SDS011;63501;55.570;37.488;2023-10-31T10:10:58;8.65;;;5.57;;
74935;SDS011;63501;55.570;37.488;2023-10-31T10:13:25;9.10;;;5.72;;
74935;SDS011;63501;55.570;37.488;2023-10-31T10:15:52;8.50;;;6.40;;
74935;SDS011;63501;55.570;37.488;2023-10-31T10:18:26;9.63;;;5.55;;
74935;SDS011;63501;55.570;37.488;2023-10-31T10:20:54;6.78;;;3.80;;
74935;SDS011;63501;55.570;37.488;2023-10-31T10:23:24;9.88;;;5.03;;
74935;SDS011;63501;55.570;37.488;2023-10-31T10:25:52;10.15;;;5.38;;
74935;SDS011;63501;55.570;37.488;2023-10-31T10:28:20;8.07;;;5.15;;
74935;SDS011;63501;55.570;37.488;2023-10-31T10:30:47;11.70;;;5.78;;
74935;SDS011;63501;55.570;37.488;2023-10-31T10:33:15;10.75;;;6.15;;
74935;SDS011;63501;55.570;37.488;2023-10-31T10:35:42;9.10;;;5.05;;
74935;SDS011;63501;55.570;37.488;2023-10-31T10:38:10;8.30;;;4.82;;
74935;SDS011;63501;55.570;37.488;2023-10-31T10:40:41;10.38;;;4.45;;
74935;SDS011;63501;55.570;37.488;2023-10-31T10:43:11;8.02;;;4.35;;
74935;SDS011;63501;55.570;37.488;2023-10-31T10:45:42;8.80;;;5.13;;
74935;SDS011;63501;55.570;37.488;2023-10-31T10:48:11;12.45;;;7.18;;
74935;SDS011;63501;55.570;37.488;2023-10-31T10:50:41;15.07;;;8.13;;
74935;SDS011;63501;55.570;37.488;2023-10-31T10:53:11;10.68;;;6.47;;
74935;SDS011;63501;55.570;37.488;2023-10-31T10:55:46;12.55;;;6.50;;
74935;SDS011;63501;55.570;37.488;2023-10-31T11:00:49;9.02;;;5.95;;
74935;SDS011;63501;55.570;37.488;2023-10-31T11:03:17;8.85;;;5.47;;
74935;SDS011;63501;55.570;37.488;2023-10-31T11:05:46;11.27;;;5.97;;
74935;SDS011;63501;55.570;37.488;2023-10-31T11:08:14;11.60;;;5.57;;
74935;SDS011;63501;55.570;37.488;2023-10-31T11:10:42;10.55;;;5.95;;
74935;SDS011;63501;55.570;37.488;2023-10-31T11:13:12;12.02;;;6.25;;
74935;SDS011;63501;55.570;37.488;2023-10-31T11:15:40;11.23;;;6.07;;
74935;SDS011;63501;55.570;37.488;2023-10-31T11:20:35;6.28;;;2.83;;
74935;SDS011;63501;55.570;37.488;2023-10-31T11:23:03;10.70;;;5.03;;
74935;SDS011;63501;55.570;37.488;2023-10-31T11:25:32;4.00;;;2.78;;
74935;SDS011;63501;55.570;37.488;2023-10-31T11:28:13;11.38;;;5.00;;
74935;SDS011;63501;55.570;37.488;2023-10-31T11:30:41;10.10;;;5.97;;
74935;SDS011;63501;55.570;37.488;2023-10-31T11:33:11;10.75;;;5.75;;
74935;SDS011;63501;55.570;37.488;2023-10-31T11:35:39;6.22;;;4.13;;
74935;SDS011;63501;55.570;37.488;2023-10-31T11:38:07;10.55;;;5.95;;
74935;SDS011;63501;55.570;37.488;2023-10-31T11:40:37;9.93;;;5.93;;
74935;SDS011;63501;55.570;37.488;2023-10-31T11:43:26;8.82;;;6.03;;
74935;SDS011;63501;55.570;37.488;2023-10-31T11:46:02;8.07;;;4.80;;
74935;SDS011;63501;55.570;37.488;2023-10-31T11:48:44;7.53;;;4.60;;
74935;SDS011;63501;55.570;37.488;2023-10-31T11:51:12;8.02;;;4.72;;
74935;SDS011;63501;55.570;37.488;2023-10-31T11:53:39;8.90;;;5.22;;
74935;SDS011;63501;55.570;37.488;2023-10-31T11:56:09;10.38;;;5.85;;
74935;SDS011;63501;55.570;37.488;2023-10-31T11:58:38;9.50;;;5.70;;
74935;SDS011;63501;55.570;37.488;2023-10-31T12:01:05;9.40;;;5.63;;
74935;SDS011;63501;55.570;37.488;2023-10-31T12:03:36;9.35;;;5.75;;
74935;SDS011;63501;55.570;37.488;2023-10-31T12:06:04;10.88;;;6.35;;
74935;SDS011;63501;55.570;37.488;2023-10-31T12:08:34;8.95;;;5.97;;
74935;SDS011;63501;55.570;37.488;2023-10-31T12:11:03;8.75;;;5.43;;
74935;SDS011;63501;55.570;37.488;2023-10-31T12:13:35;10.85;;;6.47;;
74935;SDS011;63501;55.570;37.488;2023-10-31T12:16:05;8.02;;;4.88;;
74935;SDS011;63501;55.570;37.488;2023-10-31T12:18:33;8.55;;;5.53;;
74935;SDS011;63501;55.570;37.488;2023-10-31T12:21:01;10.25;;;6.00;;
74935;SDS011;63501;55.570;37.488;2023-10-31T12:23:28;11.13;;;5.80;;
74935;SDS011;63501;55.570;37.488;2023-10-31T12:25:55;9.95;;;5.78;;
74935;SDS011;63501;55.570;37.488;2023-10-31T12:28:23;10.52;;;5.30;;
74935;SDS011;63501;55.570;37.488;2023-10-31T12:33:21;8.25;;;4.75;;
74935;SDS011;63501;55.570;37.488;2023-10-31T12:35:50;10.85;;;5.63;;
74935;SDS011;63501;55.570;37.488;2023-10-31T12:40:45;9.63;;;5.95;;
74935;SDS011;63501;55.570;37.488;2023-10-31T12:43:14;11.63;;;6.25;;
74935;SDS011;63501;55.570;37.488;2023-10-31T12:45:42;8.07;;;4.93;;
74935;SDS011;63501;55.570;37.488;2023-10-31T12:48:10;10.20;;;6.03;;
74935;SDS011;63501;55.570;37.488;2023-10-31T12:50:38;10.88;;;6.07;;
74935;SDS011;63501;55.570;37.488;2023-10-31T12:53:06;9.98;;;6.75;;
74935;SDS011;63501;55.570;37.488;2023-10-31T12:55:37;9.73;;;5.70;;
74935;SDS011;63501;55.570;37.488;2023-10-31T12:58:05;10.93;;;7.13;;
74935;SDS011;63501;55.570;37.488;2023-10-31T13:00:35;8.80;;;6.03;;
74935;SDS011;63501;55.570;37.488;2023-10-31T13:03:04;11.82;;;5.68;;
74935;SDS011;63501;55.570;37.488;2023-10-31T13:05:32;11.40;;;6.30;;
74935;SDS011;63501;55.570;37.488;2023-10-31T13:08:00;12.15;;;7.18;;
74935;SDS011;63501;55.570;37.488;2023-10-31T13:10:30;5.55;;;3.10;;
74935;SDS011;63501;55.570;37.488;2023-10-31T13:12:58;14.88;;;7.43;;
74935;SDS011;63501;55.570;37.488;2023-10-31T13:15:25;17.83;;;7.93;;
74935;SDS011;63501;55.570;37.488;2023-10-31T13:17:52;7.00;;;4.47;;
74935;SDS011;63501;55.570;37.488;2023-10-31T13:20:20;17.52;;;8.13;;
74935;SDS011;63501;55.570;37.488;2023-10-31T13:22:48;13.55;;;6.97;;
74935;SDS011;63501;55.570;37.488;2023-10-31T13:25:16;20.90;;;9.88;;
74935;SDS011;63501;55.570;37.488;2023-10-31T13:27:44;19.40;;;9.10;;
74935;SDS011;63501;55.570;37.488;2023-10-31T13:30:16;18.08;;;9.10;;
74935;SDS011;63501;55.570;37.488;2023-10-31T13:32:44;17.20;;;9.57;;
74935;SDS011;63501;55.570;37.488;2023-10-31T13:35:11;15.25;;;8.68;;
74935;SDS011;63501;55.570;37.488;2023-10-31T13:37:40;19.08;;;9.00;;
74935;SDS011;63501;55.570;37.488;2023-10-31T13:40:07;19.73;;;10.70;;
74935;SDS011;63501;55.570;37.488;2023-10-31T13:42:36;23.98;;;10.30;;
74935;SDS011;63501;55.570;37.488;2023-10-31T13:45:03;20.85;;;10.85;;
74935;SDS011;63501;55.570;37.488;2023-10-31T13:47:31;27.90;;;11.13;;
74935;SDS011;63501;55.570;37.488;2023-10-31T13:49:58;22.30;;;10.90;;
74935;SDS011;63501;55.570;37.488;2023-10-31T13:52:25;25.13;;;11.55;;
74935;SDS011;63501;55.570;37.488;2023-10-31T13:54:52;24.40;;;10.70;;
74935;SDS011;63501;55.570;37.488;2023-10-31T13:57:19;69.82;;;12.73;;
74935;SDS011;63501;55.570;37.488;2023-10-31T13:59:49;21.23;;;10.50;;
74935;SDS011;63501;55.570;37.488;2023-10-31T14:02:17;24.13;;;10.30;;
74935;SDS011;63501;55.570;37.488;2023-10-31T14:04:44;26.15;;;9.73;;
74935;SDS011;63501;55.570;37.488;2023-10-31T14:07:12;31.95;;;10.63;;
74935;SDS011;63501;55.570;37.488;2023-10-31T14:09:47;27.70;;;8.50;;
74935;SDS011;63501;55.570;37.488;2023-10-31T14:12:14;31.00;;;9.85;;
74935;SDS011;63501;55.570;37.488;2023-10-31T14:14:41;17.83;;;8.73;;
74935;SDS011;63501;55.570;37.488;2023-10-31T14:17:10;21.80;;;9.55;;
74935;SDS011;63501;55.570;37.488;2023-10-31T14:19:38;21.23;;;8.93;;
74935;SDS011;63501;55.570;37.488;2023-10-31T14:22:05;29.48;;;9.07;;
74935;SDS011;63501;55.570;37.488;2023-10-31T14:24:33;21.92;;;9.20;;
74935;SDS011;63501;55.570;37.488;2023-10-31T14:27:00;71.47;;;9.73;;
74935;SDS011;63501;55.570;37.488;2023-10-31T14:29:28;67.13;;;9.68;;
74935;SDS011;63501;55.570;37.488;2023-10-31T14:31:55;32.10;;;8.02;;
74935;SDS011;63501;55.570;37.488;2023-10-31T14:34:24;29.30;;;8.00;;
74935;SDS011;63501;55.570;37.488;2023-10-31T14:36:51;38.15;;;8.20;;
74935;SDS011;63501;55.570;37.488;2023-10-31T14:39:18;66.40;;;9.77;;
74935;SDS011;63501;55.570;37.488;2023-10-31T14:41:45;137.25;;;13.05;;
74935;SDS011;63501;55.570;37.488;2023-10-31T14:44:12;197.40;;;14.30;;
74935;SDS011;63501;55.570;37.488;2023-10-31T14:46:40;239.45;;;15.88;;
74935;SDS011;63501;55.570;37.488;2023-10-31T14:49:07;110.55;;;10.95;;
74935;SDS011;63501;55.570;37.488;2023-10-31T14:51:36;131.95;;;12.45;;
74935;SDS011;63501;55.570;37.488;2023-10-31T14:54:03;124.90;;;10.95;;
74935;SDS011;63501;55.570;37.488;2023-10-31T14:56:31;67.30;;;8.85;;
74935;SDS011;63501;55.570;37.488;2023-10-31T14:59:00;95.53;;;9.02;;
74935;SDS011;63501;55.570;37.488;2023-10-31T15:01:27;73.47;;;8.23;;
74935;SDS011;63501;55.570;37.488;2023-10-31T15:03:54;80.55;;;10.15;;
74935;SDS011;63501;55.570;37.488;2023-10-31T15:06:22;222.90;;;14.85;;
74935;SDS011;63501;55.570;37.488;2023-10-31T15:08:50;37.47;;;6.65;;
74935;SDS011;63501;55.570;37.488;2023-10-31T15:11:17;45.13;;;6.93;;
74935;SDS011;63501;55.570;37.488;2023-10-31T15:13:44;102.57;;;9.20;;
74935;SDS011;63501;55.570;37.488;2023-10-31T15:16:11;119.22;;;11.00;;
74935;SDS011;63501;55.570;37.488;2023-10-31T15:18:38;74.07;;;8.27;;
74935;SDS011;63501;55.570;37.488;2023-10-31T15:21:05;176.40;;;12.70;;
74935;SDS011;63501;55.570;37.488;2023-10-31T15:23:32;266.95;;;16.90;;